sensor_id;sensor_type;location;lat;lon;timestamp;pressure;altitude;pressure_sealevel;temperature;humidity
70103;BME280;57470;50.034;15.256;2023-02-04T00:00:12;99305.97;;;5.53;87.62
70103;BME280;57470;50.034;15.256;2023-02-04T00:02:39;99300.44;;;5.57;87.30
70103;BME280;57470;50.034;15.256;2023-02-04T00:05:04;99308.53;;;5.54;87.29
70103;BME280;57470;50.034;15.256;2023-02-04T00:07:30;99299.19;;;5.47;88.37
70103;BME280;57470;50.034;15.256;2023-02-04T00:09:55;99301.75;;;5.49;87.79
70103;BME280;57470;50.034;15.256;2023-02-04T00:12:21;99306.72;;;5.55;87.25
70103;BME280;57470;50.034;15.256;2023-02-04T00:14:46;99312.47;;;5.46;87.75
70103;BME280;57470;50.034;15.256;2023-02-04T00:17:11;99299.91;;;5.51;88.04
70103;BME280;57470;50.034;15.256;2023-02-04T00:19:40;99301.69;;;5.50;87.69
70103;BME280;57470;50.034;15.256;2023-02-04T00:22:07;99305.97;;;5.53;87.83
70103;BME280;57470;50.034;15.256;2023-02-04T00:24:36;99291.47;;;5.44;88.07
70103;BME280;57470;50.034;15.256;2023-02-04T00:27:03;99307.97;;;5.48;88.56
70103;BME280;57470;50.034;15.256;2023-02-04T00:29:30;99304.53;;;5.46;88.08
70103;BME280;57470;50.034;15.256;2023-02-04T00:31:56;99299.28;;;5.46;88.26
70103;BME280;57470;50.034;15.256;2023-02-04T00:34:22;99292.91;;;5.50;88.25
70103;BME280;57470;50.034;15.256;2023-02-04T00:36:47;99291.69;;;5.40;88.84
70103;BME280;57470;50.034;15.256;2023-02-04T00:39:13;99281.53;;;5.32;88.98
70103;BME280;57470;50.034;15.256;2023-02-04T00:41:39;99278.94;;;5.31;88.91
70103;BME280;57470;50.034;15.256;2023-02-04T00:44:04;99290.59;;;5.26;88.81
70103;BME280;57470;50.034;15.256;2023-02-04T00:46:29;99273.00;;;5.27;88.87
70103;BME280;57470;50.034;15.256;2023-02-04T00:48:55;99279.28;;;5.24;88.95
70103;BME280;57470;50.034;15.256;2023-02-04T00:51:20;99293.38;;;5.23;88.83
70103;BME280;57470;50.034;15.256;2023-02-04T00:53:45;99305.00;;;5.19;89.86
70103;BME280;57470;50.034;15.256;2023-02-04T00:56:11;99311.97;;;5.20;89.64
70103;BME280;57470;50.034;15.256;2023-02-04T00:58:36;99307.63;;;5.19;89.84
70103;BME280;57470;50.034;15.256;2023-02-04T01:01:02;99298.91;;;5.19;90.20
70103;BME280;57470;50.034;15.256;2023-02-04T01:03:27;99305.09;;;5.18;89.74
70103;BME280;57470;50.034;15.256;2023-02-04T01:05:53;99308.59;;;5.18;89.86
70103;BME280;57470;50.034;15.256;2023-02-04T01:08:18;99318.16;;;5.19;90.20
70103;BME280;57470;50.034;15.256;2023-02-04T01:10:43;99325.25;;;5.19;90.37
70103;BME280;57470;50.034;15.256;2023-02-04T01:13:09;99330.28;;;5.23;90.46
70103;BME280;57470;50.034;15.256;2023-02-04T01:15:35;99322.44;;;5.22;90.80
70103;BME280;57470;50.034;15.256;2023-02-04T01:18:00;99345.50;;;5.18;91.69
70103;BME280;57470;50.034;15.256;2023-02-04T01:20:26;99344.72;;;5.16;92.98
70103;BME280;57470;50.034;15.256;2023-02-04T01:22:51;99362.25;;;4.99;93.85
70103;BME280;57470;50.034;15.256;2023-02-04T01:25:17;99396.88;;;5.10;95.30
70103;BME280;57470;50.034;15.256;2023-02-04T01:27:43;99407.84;;;4.82;97.43
70103;BME280;57470;50.034;15.256;2023-02-04T01:30:10;99392.47;;;4.73;98.86
70103;BME280;57470;50.034;15.256;2023-02-04T01:32:37;99420.66;;;4.71;99.19
70103;BME280;57470;50.034;15.256;2023-02-04T01:35:03;99428.84;;;4.65;99.06
70103;BME280;57470;50.034;15.256;2023-02-04T01:37:28;99450.84;;;4.64;99.59
70103;BME280;57470;50.034;15.256;2023-02-04T01:39:54;99442.22;;;4.60;98.01
70103;BME280;57470;50.034;15.256;2023-02-04T01:42:19;99468.50;;;4.62;98.56
70103;BME280;57470;50.034;15.256;2023-02-04T01:44:45;99466.53;;;4.46;97.50
70103;BME280;57470;50.034;15.256;2023-02-04T01:47:10;99492.34;;;4.38;95.39
70103;BME280;57470;50.034;15.256;2023-02-04T01:49:36;99494.38;;;4.11;91.15
70103;BME280;57470;50.034;15.256;2023-02-04T01:52:02;99493.09;;;4.00;88.70
70103;BME280;57470;50.034;15.256;2023-02-04T01:54:27;99502.00;;;3.75;84.09
70103;BME280;57470;50.034;15.256;2023-02-04T01:56:53;99510.50;;;3.60;84.17
70103;BME280;57470;50.034;15.256;2023-02-04T01:59:20;99509.34;;;3.46;84.57
70103;BME280;57470;50.034;15.256;2023-02-04T02:01:48;99499.06;;;3.39;85.35
70103;BME280;57470;50.034;15.256;2023-02-04T02:04:17;99511.41;;;3.37;84.96
70103;BME280;57470;50.034;15.256;2023-02-04T02:06:54;99522.44;;;3.24;85.58
70103;BME280;57470;50.034;15.256;2023-02-04T02:09:22;99525.13;;;3.22;85.48
70103;BME280;57470;50.034;15.256;2023-02-04T02:11:48;99534.91;;;3.19;85.35
70103;BME280;57470;50.034;15.256;2023-02-04T02:14:13;99559.53;;;3.16;85.61
70103;BME280;57470;50.034;15.256;2023-02-04T02:16:39;99577.97;;;3.15;85.04
70103;BME280;57470;50.034;15.256;2023-02-04T02:19:06;99584.84;;;3.19;84.33
70103;BME280;57470;50.034;15.256;2023-02-04T02:21:42;99581.13;;;3.24;85.31
70103;BME280;57470;50.034;15.256;2023-02-04T02:24:30;99600.41;;;3.23;85.54
70103;BME280;57470;50.034;15.256;2023-02-04T02:26:59;99601.13;;;3.28;86.03
70103;BME280;57470;50.034;15.256;2023-02-04T02:29:26;99626.59;;;3.26;85.65
70103;BME280;57470;50.034;15.256;2023-02-04T02:31:52;99643.19;;;3.28;85.70
70103;BME280;57470;50.034;15.256;2023-02-04T02:34:18;99659.09;;;3.24;86.03
70103;BME280;57470;50.034;15.256;2023-02-04T02:36:43;99670.22;;;3.07;87.28
70103;BME280;57470;50.034;15.256;2023-02-04T02:39:09;99692.31;;;3.01;89.38
70103;BME280;57470;50.034;15.256;2023-02-04T02:41:35;99693.63;;;2.88;91.13
70103;BME280;57470;50.034;15.256;2023-02-04T02:44:01;99715.00;;;2.78;89.87
70103;BME280;57470;50.034;15.256;2023-02-04T02:46:27;99691.84;;;2.64;90.46
70103;BME280;57470;50.034;15.256;2023-02-04T02:48:52;99693.84;;;2.56;90.43
70103;BME280;57470;50.034;15.256;2023-02-04T02:51:19;99708.09;;;2.49;91.34
70103;BME280;57470;50.034;15.256;2023-02-04T02:53:47;99709.16;;;2.42;90.81
70103;BME280;57470;50.034;15.256;2023-02-04T02:56:17;99715.34;;;2.41;90.82
70103;BME280;57470;50.034;15.256;2023-02-04T02:58:44;99720.59;;;2.41;90.98
70103;BME280;57470;50.034;15.256;2023-02-04T03:01:12;99735.34;;;2.45;90.88
70103;BME280;57470;50.034;15.256;2023-02-04T03:03:48;99737.31;;;2.38;90.48
70103;BME280;57470;50.034;15.256;2023-02-04T03:06:18;99752.84;;;2.44;89.97
70103;BME280;57470;50.034;15.256;2023-02-04T03:08:47;99759.81;;;2.45;89.62
70103;BME280;57470;50.034;15.256;2023-02-04T03:11:16;99784.47;;;2.41;88.59
70103;BME280;57470;50.034;15.256;2023-02-04T03:13:43;99789.84;;;2.37;88.47
70103;BME280;57470;50.034;15.256;2023-02-04T03:16:10;99822.34;;;2.33;88.61
70103;BME280;57470;50.034;15.256;2023-02-04T03:18:38;99812.63;;;2.35;88.60
70103;BME280;57470;50.034;15.256;2023-02-04T03:21:06;99831.00;;;2.35;89.42
70103;BME280;57470;50.034;15.256;2023-02-04T03:23:34;99832.72;;;2.36;88.61
70103;BME280;57470;50.034;15.256;2023-02-04T03:26:03;99846.88;;;2.32;89.42
70103;BME280;57470;50.034;15.256;2023-02-04T03:28:31;99852.31;;;2.24;90.08
70103;BME280;57470;50.034;15.256;2023-02-04T03:30:58;99869.75;;;2.26;90.41
70103;BME280;57470;50.034;15.256;2023-02-04T03:33:26;99872.38;;;2.26;91.10
70103;BME280;57470;50.034;15.256;2023-02-04T03:35:58;99894.84;;;2.35;90.72
70103;BME280;57470;50.034;15.256;2023-02-04T03:38:23;99899.34;;;2.32;90.17
70103;BME280;57470;50.034;15.256;2023-02-04T03:40:49;99908.09;;;2.32;89.59
70103;BME280;57470;50.034;15.256;2023-02-04T03:43:14;99916.72;;;2.36;89.73
70103;BME280;57470;50.034;15.256;2023-02-04T03:45:40;99934.28;;;2.34;89.34
70103;BME280;57470;50.034;15.256;2023-02-04T03:48:05;99958.97;;;2.26;88.96
70103;BME280;57470;50.034;15.256;2023-02-04T03:50:30;99963.09;;;2.35;89.62
70103;BME280;57470;50.034;15.256;2023-02-04T03:52:56;99981.66;;;2.29;89.90
70103;BME280;57470;50.034;15.256;2023-02-04T03:55:21;100010.00;;;2.15;88.82
70103;BME280;57470;50.034;15.256;2023-02-04T03:57:47;100007.50;;;2.10;89.13
70103;BME280;57470;50.034;15.256;2023-02-04T04:00:12;100024.19;;;2.08;89.69
70103;BME280;57470;50.034;15.256;2023-02-04T04:02:39;100027.66;;;2.08;89.44
70103;BME280;57470;50.034;15.256;2023-02-04T04:05:05;100025.25;;;2.01;89.43
70103;BME280;57470;50.034;15.256;2023-02-04T04:07:31;100045.44;;;1.97;89.93
70103;BME280;57470;50.034;15.256;2023-02-04T04:09:56;100042.91;;;1.94;90.09
70103;BME280;57470;50.034;15.256;2023-02-04T04:12:21;100066.72;;;1.85;89.92
70103;BME280;57470;50.034;15.256;2023-02-04T04:14:47;100060.69;;;1.81;90.47
70103;BME280;57470;50.034;15.256;2023-02-04T04:17:12;100072.03;;;1.82;89.78
70103;BME280;57470;50.034;15.256;2023-02-04T04:19:37;100082.47;;;1.85;90.26
70103;BME280;57470;50.034;15.256;2023-02-04T04:22:03;100102.44;;;1.91;89.44
70103;BME280;57470;50.034;15.256;2023-02-04T04:24:28;100074.56;;;1.86;90.28
70103;BME280;57470;50.034;15.256;2023-02-04T04:26:53;100092.97;;;1.85;90.32
70103;BME280;57470;50.034;15.256;2023-02-04T04:29:19;100107.81;;;1.86;90.53
70103;BME280;57470;50.034;15.256;2023-02-04T04:31:44;100116.66;;;1.80;90.78
70103;BME280;57470;50.034;15.256;2023-02-04T04:34:10;100127.91;;;1.85;91.35
70103;BME280;57470;50.034;15.256;2023-02-04T04:36:36;100126.28;;;1.80;91.58
70103;BME280;57470;50.034;15.256;2023-02-04T04:39:01;100131.66;;;1.74;91.57
70103;BME280;57470;50.034;15.256;2023-02-04T04:41:27;100135.38;;;1.64;91.81
70103;BME280;57470;50.034;15.256;2023-02-04T04:43:52;100148.56;;;1.61;89.61
70103;BME280;57470;50.034;15.256;2023-02-04T04:46:17;100154.53;;;1.69;89.49
70103;BME280;57470;50.034;15.256;2023-02-04T04:48:43;100176.22;;;1.75;89.73
70103;BME280;57470;50.034;15.256;2023-02-04T04:51:08;100190.22;;;1.74;89.46
70103;BME280;57470;50.034;15.256;2023-02-04T04:53:33;100208.41;;;1.82;89.33
70103;BME280;57470;50.034;15.256;2023-02-04T04:55:59;100221.75;;;1.71;88.02
70103;BME280;57470;50.034;15.256;2023-02-04T04:58:24;100245.47;;;1.65;86.19
70103;BME280;57470;50.034;15.256;2023-02-04T05:00:49;100266.31;;;1.71;86.29
70103;BME280;57470;50.034;15.256;2023-02-04T05:03:15;100273.63;;;1.56;85.59
70103;BME280;57470;50.034;15.256;2023-02-04T05:05:40;100283.41;;;1.47;85.08
70103;BME280;57470;50.034;15.256;2023-02-04T05:08:06;100295.75;;;1.41;85.15
70103;BME280;57470;50.034;15.256;2023-02-04T05:10:40;100297.69;;;1.31;84.45
70103;BME280;57470;50.034;15.256;2023-02-04T05:13:06;100297.03;;;1.17;84.76
70103;BME280;57470;50.034;15.256;2023-02-04T05:15:32;100318.00;;;1.17;84.18
70103;BME280;57470;50.034;15.256;2023-02-04T05:17:57;100326.84;;;1.11;83.53
70103;BME280;57470;50.034;15.256;2023-02-04T05:20:23;100344.28;;;1.12;83.18
70103;BME280;57470;50.034;15.256;2023-02-04T05:22:49;100350.50;;;1.07;82.50
70103;BME280;57470;50.034;15.256;2023-02-04T05:25:15;100347.91;;;1.05;82.76
70103;BME280;57470;50.034;15.256;2023-02-04T05:27:43;100351.41;;;1.04;81.29
70103;BME280;57470;50.034;15.256;2023-02-04T05:30:10;100361.75;;;1.12;81.03
70103;BME280;57470;50.034;15.256;2023-02-04T05:32:37;100370.47;;;1.14;81.12
70103;BME280;57470;50.034;15.256;2023-02-04T05:35:02;100363.47;;;1.16;80.94
70103;BME280;57470;50.034;15.256;2023-02-04T05:37:28;100378.47;;;1.05;78.86
70103;BME280;57470;50.034;15.256;2023-02-04T05:39:53;100374.84;;;1.13;79.20
70103;BME280;57470;50.034;15.256;2023-02-04T05:42:18;100389.72;;;1.10;78.95
70103;BME280;57470;50.034;15.256;2023-02-04T05:44:44;100392.34;;;1.10;78.81
70103;BME280;57470;50.034;15.256;2023-02-04T05:47:09;100400.19;;;1.11;79.20
70103;BME280;57470;50.034;15.256;2023-02-04T05:49:34;100398.44;;;1.12;80.08
70103;BME280;57470;50.034;15.256;2023-02-04T05:52:00;100408.91;;;1.13;80.63
70103;BME280;57470;50.034;15.256;2023-02-04T05:54:25;100415.88;;;1.13;80.88
70103;BME280;57470;50.034;15.256;2023-02-04T05:56:50;100426.13;;;1.28;81.43
70103;BME280;57470;50.034;15.256;2023-02-04T05:59:16;100437.44;;;1.32;82.05
70103;BME280;57470;50.034;15.256;2023-02-04T06:01:42;100445.41;;;1.24;82.50
70103;BME280;57470;50.034;15.256;2023-02-04T06:04:07;100458.53;;;1.24;82.80
70103;BME280;57470;50.034;15.256;2023-02-04T06:06:33;100463.63;;;1.33;82.91
70103;BME280;57470;50.034;15.256;2023-02-04T06:08:58;100473.41;;;1.22;82.16
70103;BME280;57470;50.034;15.256;2023-02-04T06:11:24;100484.75;;;1.23;82.51
70103;BME280;57470;50.034;15.256;2023-02-04T06:13:49;100481.06;;;1.34;82.61
70103;BME280;57470;50.034;15.256;2023-02-04T06:16:14;100504.56;;;1.40;83.42
70103;BME280;57470;50.034;15.256;2023-02-04T06:18:40;100516.84;;;1.35;81.95
70103;BME280;57470;50.034;15.256;2023-02-04T06:21:05;100519.44;;;1.40;82.03
70103;BME280;57470;50.034;15.256;2023-02-04T06:23:31;100526.53;;;1.32;81.76
70103;BME280;57470;50.034;15.256;2023-02-04T06:25:58;100543.25;;;1.25;81.49
70103;BME280;57470;50.034;15.256;2023-02-04T06:28:23;100543.31;;;1.17;81.60
70103;BME280;57470;50.034;15.256;2023-02-04T06:30:49;100552.88;;;1.23;81.41
70103;BME280;57470;50.034;15.256;2023-02-04T06:33:14;100566.94;;;1.16;81.29
70103;BME280;57470;50.034;15.256;2023-02-04T06:35:39;100576.56;;;1.15;81.32
70103;BME280;57470;50.034;15.256;2023-02-04T06:38:05;100579.06;;;1.23;81.15
70103;BME280;57470;50.034;15.256;2023-02-04T06:40:30;100582.69;;;1.14;82.17
70103;BME280;57470;50.034;15.256;2023-02-04T06:42:56;100590.59;;;1.08;81.88
70103;BME280;57470;50.034;15.256;2023-02-04T06:45:21;100599.28;;;1.11;81.86
70103;BME280;57470;50.034;15.256;2023-02-04T06:47:46;100601.97;;;1.07;81.79
70103;BME280;57470;50.034;15.256;2023-02-04T06:50:12;100612.53;;;0.99;81.38
70103;BME280;57470;50.034;15.256;2023-02-04T06:52:43;100609.09;;;0.97;81.90
70103;BME280;57470;50.034;15.256;2023-02-04T06:55:08;100623.00;;;0.99;81.81
70103;BME280;57470;50.034;15.256;2023-02-04T06:57:34;100624.91;;;0.87;81.38
70103;BME280;57470;50.034;15.256;2023-02-04T06:59:59;100624.03;;;0.86;81.38
70103;BME280;57470;50.034;15.256;2023-02-04T07:02:25;100630.09;;;0.90;81.96
70103;BME280;57470;50.034;15.256;2023-02-04T07:04:50;100627.38;;;0.99;82.11
70103;BME280;57470;50.034;15.256;2023-02-04T07:07:15;100629.28;;;0.85;82.96
70103;BME280;57470;50.034;15.256;2023-02-04T07:09:41;100640.63;;;0.85;83.47
70103;BME280;57470;50.034;15.256;2023-02-04T07:12:06;100648.44;;;0.90;83.84
70103;BME280;57470;50.034;15.256;2023-02-04T07:14:32;100651.97;;;0.89;83.58
70103;BME280;57470;50.034;15.256;2023-02-04T07:16:57;100660.63;;;0.92;82.77
70103;BME280;57470;50.034;15.256;2023-02-04T07:19:23;100663.25;;;0.92;81.55
70103;BME280;57470;50.034;15.256;2023-02-04T07:21:49;100657.16;;;0.90;81.25
70103;BME280;57470;50.034;15.256;2023-02-04T07:24:18;100671.09;;;0.94;80.25
70103;BME280;57470;50.034;15.256;2023-02-04T07:26:43;100678.09;;;0.92;79.42
70103;BME280;57470;50.034;15.256;2023-02-04T07:29:09;100678.88;;;1.01;78.38
70103;BME280;57470;50.034;15.256;2023-02-04T07:31:34;100688.56;;;0.93;78.32
70103;BME280;57470;50.034;15.256;2023-02-04T07:33:59;100699.03;;;0.92;76.92
70103;BME280;57470;50.034;15.256;2023-02-04T07:36:25;100693.78;;;0.95;75.84
70103;BME280;57470;50.034;15.256;2023-02-04T07:38:50;100713.06;;;0.89;76.33
70103;BME280;57470;50.034;15.256;2023-02-04T07:41:16;100716.34;;;1.08;75.63
70103;BME280;57470;50.034;15.256;2023-02-04T07:43:41;100732.63;;;1.39;75.85
70103;BME280;57470;50.034;15.256;2023-02-04T07:46:06;100726.72;;;3.04;73.77
70103;BME280;57470;50.034;15.256;2023-02-04T07:48:32;100732.38;;;4.52;67.29
70103;BME280;57470;50.034;15.256;2023-02-04T07:50:58;100739.34;;;3.76;68.75
70103;BME280;57470;50.034;15.256;2023-02-04T07:53:23;100752.84;;;5.77;63.96
70103;BME280;57470;50.034;15.256;2023-02-04T07:55:48;100742.97;;;5.20;62.69
70103;BME280;57470;50.034;15.256;2023-02-04T07:58:14;100760.81;;;4.75;64.66
70103;BME280;57470;50.034;15.256;2023-02-04T08:00:39;100777.06;;;2.78;68.93
70103;BME280;57470;50.034;15.256;2023-02-04T08:03:04;100791.28;;;2.65;70.21
70103;BME280;57470;50.034;15.256;2023-02-04T08:05:30;100797.94;;;2.29;71.44
70103;BME280;57470;50.034;15.256;2023-02-04T08:07:55;100801.81;;;1.99;72.36
70103;BME280;57470;50.034;15.256;2023-02-04T08:10:21;100807.81;;;2.10;72.05
70103;BME280;57470;50.034;15.256;2023-02-04T08:12:46;100816.94;;;2.48;71.00
70103;BME280;57470;50.034;15.256;2023-02-04T08:15:11;100826.28;;;2.04;70.99
70103;BME280;57470;50.034;15.256;2023-02-04T08:17:37;100835.09;;;3.20;67.97
70103;BME280;57470;50.034;15.256;2023-02-04T08:20:03;100840.09;;;2.15;70.02
70103;BME280;57470;50.034;15.256;2023-02-04T08:22:28;100841.72;;;2.27;70.05
70103;BME280;57470;50.034;15.256;2023-02-04T08:24:53;100845.47;;;2.06;70.04
70103;BME280;57470;50.034;15.256;2023-02-04T08:27:19;100850.81;;;2.00;69.46
70103;BME280;57470;50.034;15.256;2023-02-04T08:29:44;100856.78;;;2.11;70.40
70103;BME280;57470;50.034;15.256;2023-02-04T08:32:10;100864.47;;;2.28;70.72
70103;BME280;57470;50.034;15.256;2023-02-04T08:34:38;100869.81;;;2.19;70.52
70103;BME280;57470;50.034;15.256;2023-02-04T08:37:03;100870.44;;;2.39;69.35
70103;BME280;57470;50.034;15.256;2023-02-04T08:39:29;100877.34;;;2.48;68.80
70103;BME280;57470;50.034;15.256;2023-02-04T08:41:54;100875.59;;;2.47;68.67
70103;BME280;57470;50.034;15.256;2023-02-04T08:44:20;100870.72;;;2.18;67.77
70103;BME280;57470;50.034;15.256;2023-02-04T08:46:45;100888.75;;;2.44;68.48
70103;BME280;57470;50.034;15.256;2023-02-04T08:49:10;100890.22;;;2.68;69.12
70103;BME280;57470;50.034;15.256;2023-02-04T08:51:36;100898.22;;;2.57;68.33
70103;BME280;57470;50.034;15.256;2023-02-04T08:54:01;100901.91;;;2.42;68.64
70103;BME280;57470;50.034;15.256;2023-02-04T08:56:27;100897.16;;;2.69;67.29
70103;BME280;57470;50.034;15.256;2023-02-04T08:58:52;100906.06;;;3.20;67.03
70103;BME280;57470;50.034;15.256;2023-02-04T09:01:18;100906.13;;;3.69;66.21
70103;BME280;57470;50.034;15.256;2023-02-04T09:03:44;100911.28;;;4.21;66.29
70103;BME280;57470;50.034;15.256;2023-02-04T09:06:09;100921.75;;;4.24;65.31
70103;BME280;57470;50.034;15.256;2023-02-04T09:08:35;100910.91;;;3.95;64.98
70103;BME280;57470;50.034;15.256;2023-02-04T09:11:00;100918.19;;;3.81;65.98
70103;BME280;57470;50.034;15.256;2023-02-04T09:13:26;100922.00;;;3.64;65.25
70103;BME280;57470;50.034;15.256;2023-02-04T09:15:51;100923.09;;;3.50;65.53
70103;BME280;57470;50.034;15.256;2023-02-04T09:18:17;100925.34;;;3.74;66.27
70103;BME280;57470;50.034;15.256;2023-02-04T09:20:46;100925.97;;;3.36;65.44
70103;BME280;57470;50.034;15.256;2023-02-04T09:23:12;100940.44;;;3.63;65.62
70103;BME280;57470;50.034;15.256;2023-02-04T09:25:38;100937.13;;;4.01;66.23
70103;BME280;57470;50.034;15.256;2023-02-04T09:28:04;100944.00;;;4.09;64.78
70103;BME280;57470;50.034;15.256;2023-02-04T09:30:30;100951.22;;;3.98;64.73
70103;BME280;57470;50.034;15.256;2023-02-04T09:32:56;100958.00;;;3.59;64.20
70103;BME280;57470;50.034;15.256;2023-02-04T09:35:21;100971.97;;;3.06;65.91
70103;BME280;57470;50.034;15.256;2023-02-04T09:37:47;100980.44;;;3.29;66.29
70103;BME280;57470;50.034;15.256;2023-02-04T09:40:15;100980.41;;;3.31;66.45
70103;BME280;57470;50.034;15.256;2023-02-04T09:42:46;100977.69;;;3.37;66.83
70103;BME280;57470;50.034;15.256;2023-02-04T09:45:20;100991.25;;;3.07;67.30
70103;BME280;57470;50.034;15.256;2023-02-04T09:47:47;100992.09;;;3.10;67.17
70103;BME280;57470;50.034;15.256;2023-02-04T09:50:19;100993.28;;;3.48;68.09
70103;BME280;57470;50.034;15.256;2023-02-04T09:52:47;101005.22;;;3.12;68.43
70103;BME280;57470;50.034;15.256;2023-02-04T09:55:19;101004.34;;;3.10;67.46
70103;BME280;57470;50.034;15.256;2023-02-04T09:57:46;100997.56;;;2.95;66.74
70103;BME280;57470;50.034;15.256;2023-02-04T10:00:20;101001.69;;;3.13;66.66
70103;BME280;57470;50.034;15.256;2023-02-04T10:02:46;101006.34;;;2.92;66.28
70103;BME280;57470;50.034;15.256;2023-02-04T10:05:15;101004.03;;;2.67;67.12
70103;BME280;57470;50.034;15.256;2023-02-04T10:07:41;101015.44;;;2.64;66.90
70103;BME280;57470;50.034;15.256;2023-02-04T10:10:21;101016.31;;;2.63;67.19
70103;BME280;57470;50.034;15.256;2023-02-04T10:12:50;101019.75;;;2.70;66.98
70103;BME280;57470;50.034;15.256;2023-02-04T10:15:18;101020.56;;;2.76;68.04
70103;BME280;57470;50.034;15.256;2023-02-04T10:17:50;101041.53;;;2.79;67.52
70103;BME280;57470;50.034;15.256;2023-02-04T10:20:18;101034.78;;;2.58;67.12
70103;BME280;57470;50.034;15.256;2023-02-04T10:22:44;101038.97;;;2.73;67.96
70103;BME280;57470;50.034;15.256;2023-02-04T10:25:19;101052.75;;;2.93;67.00
70103;BME280;57470;50.034;15.256;2023-02-04T10:27:58;101037.16;;;2.78;67.30
70103;BME280;57470;50.034;15.256;2023-02-04T10:30:25;101045.97;;;2.76;66.73
70103;BME280;57470;50.034;15.256;2023-02-04T10:32:52;101051.44;;;2.56;67.35
70103;BME280;57470;50.034;15.256;2023-02-04T10:35:20;101052.19;;;2.67;68.54
70103;BME280;57470;50.034;15.256;2023-02-04T10:37:46;101064.72;;;2.41;69.45
70103;BME280;57470;50.034;15.256;2023-02-04T10:40:41;101058.38;;;2.61;70.16
70103;BME280;57470;50.034;15.256;2023-02-04T10:43:19;101057.56;;;2.55;70.14
70103;BME280;57470;50.034;15.256;2023-02-04T10:46:02;101057.56;;;2.55;69.99
70103;BME280;57470;50.034;15.256;2023-02-04T10:48:28;101061.56;;;2.86;69.83
70103;BME280;57470;50.034;15.256;2023-02-04T10:50:55;101059.47;;;2.41;70.62
70103;BME280;57470;50.034;15.256;2023-02-04T10:53:23;101054.28;;;2.33;72.16
70103;BME280;57470;50.034;15.256;2023-02-04T10:56:18;101066.56;;;2.31;72.42
70103;BME280;57470;50.034;15.256;2023-02-04T10:58:45;101058.59;;;2.40;72.97
70103;BME280;57470;50.034;15.256;2023-02-04T11:01:11;101058.78;;;2.20;72.60
70103;BME280;57470;50.034;15.256;2023-02-04T11:03:38;101063.00;;;2.35;73.14
70103;BME280;57470;50.034;15.256;2023-02-04T11:06:10;101057.78;;;2.34;72.37
70103;BME280;57470;50.034;15.256;2023-02-04T11:08:36;101070.94;;;2.32;72.21
70103;BME280;57470;50.034;15.256;2023-02-04T11:11:15;101073.91;;;2.83;72.70
70103;BME280;57470;50.034;15.256;2023-02-04T11:18:48;101089.41;;;3.68;67.46
70103;BME280;57470;50.034;15.256;2023-02-04T11:26:40;101085.09;;;2.98;68.08
70103;BME280;57470;50.034;15.256;2023-02-04T11:41:59;101102.41;;;3.15;67.52
70103;BME280;57470;50.034;15.256;2023-02-04T11:44:25;101113.09;;;3.03;67.37
70103;BME280;57470;50.034;15.256;2023-02-04T11:46:52;101123.63;;;2.99;67.19
70103;BME280;57470;50.034;15.256;2023-02-04T11:49:22;101117.59;;;2.91;67.40
70103;BME280;57470;50.034;15.256;2023-02-04T11:51:48;101124.63;;;2.89;68.70
70103;BME280;57470;50.034;15.256;2023-02-04T11:54:15;101126.16;;;3.09;68.59
70103;BME280;57470;50.034;15.256;2023-02-04T11:56:44;101119.34;;;2.92;67.98
70103;BME280;57470;50.034;15.256;2023-02-04T11:59:11;101129.16;;;2.75;68.69
70103;BME280;57470;50.034;15.256;2023-02-04T12:01:37;101122.78;;;2.97;68.97
70103;BME280;57470;50.034;15.256;2023-02-04T12:04:05;101118.56;;;2.84;68.87
70103;BME280;57470;50.034;15.256;2023-02-04T12:06:33;101125.59;;;2.79;68.38
70103;BME280;57470;50.034;15.256;2023-02-04T12:11:57;101119.00;;;3.21;69.49
70103;BME280;57470;50.034;15.256;2023-02-04T12:14:41;101127.25;;;3.61;69.84
70103;BME280;57470;50.034;15.256;2023-02-04T12:17:17;101125.72;;;3.45;68.49
70103;BME280;57470;50.034;15.256;2023-02-04T12:19:43;101117.09;;;3.34;67.46
70103;BME280;57470;50.034;15.256;2023-02-04T12:22:08;101126.38;;;3.59;67.79
70103;BME280;57470;50.034;15.256;2023-02-04T12:24:34;101125.69;;;3.48;67.56
70103;BME280;57470;50.034;15.256;2023-02-04T12:26:59;101127.13;;;3.69;66.75
70103;BME280;57470;50.034;15.256;2023-02-04T12:29:25;101130.53;;;3.77;66.66
70103;BME280;57470;50.034;15.256;2023-02-04T12:31:51;101132.88;;;3.95;66.21
70103;BME280;57470;50.034;15.256;2023-02-04T12:34:16;101124.44;;;3.75;66.25
70103;BME280;57470;50.034;15.256;2023-02-04T12:36:42;101128.88;;;3.68;65.41
70103;BME280;57470;50.034;15.256;2023-02-04T12:39:07;101129.31;;;3.38;65.49
70103;BME280;57470;50.034;15.256;2023-02-04T12:41:34;101130.72;;;3.65;65.43
70103;BME280;57470;50.034;15.256;2023-02-04T12:44:00;101132.78;;;3.40;64.88
70103;BME280;57470;50.034;15.256;2023-02-04T12:46:27;101138.66;;;3.60;66.13
70103;BME280;57470;50.034;15.256;2023-02-04T12:48:52;101134.81;;;3.17;65.66
70103;BME280;57470;50.034;15.256;2023-02-04T12:51:18;101139.94;;;3.30;66.70
70103;BME280;57470;50.034;15.256;2023-02-04T12:53:45;101138.75;;;3.53;65.28
70103;BME280;57470;50.034;15.256;2023-02-04T12:56:11;101139.63;;;3.53;64.37
70103;BME280;57470;50.034;15.256;2023-02-04T12:58:36;101136.38;;;3.31;64.54
70103;BME280;57470;50.034;15.256;2023-02-04T13:01:02;101144.91;;;3.52;65.62
70103;BME280;57470;50.034;15.256;2023-02-04T13:03:27;101147.53;;;3.53;66.14
70103;BME280;57470;50.034;15.256;2023-02-04T13:05:52;101146.09;;;3.29;65.22
70103;BME280;57470;50.034;15.256;2023-02-04T13:08:18;101145.03;;;3.41;66.38
70103;BME280;57470;50.034;15.256;2023-02-04T13:10:44;101148.06;;;3.11;65.04
70103;BME280;57470;50.034;15.256;2023-02-04T13:13:09;101148.50;;;3.46;65.95
70103;BME280;57470;50.034;15.256;2023-02-04T13:15:34;101148.25;;;3.64;66.92